createdAt,value
2019-05-26T00:01:17.816Z,99544.95
2019-05-26T00:03:50.013Z,99541.16
2019-05-26T00:06:22.230Z,99543.71
2019-05-26T00:08:54.424Z,99545.14
2019-05-26T00:11:26.642Z,99544.77
2019-05-26T00:14:00.468Z,99543.19
2019-05-26T00:16:32.687Z,99541.01
2019-05-26T00:19:04.954Z,99548.23
2019-05-26T00:21:37.174Z,99546.99
2019-05-26T00:24:09.369Z,99547.38
2019-05-26T00:26:41.580Z,99544.73
2019-05-26T00:29:13.918Z,99541.73
2019-05-26T00:31:46.205Z,99544.67
2019-05-26T00:34:18.472Z,99537.78
2019-05-26T00:36:50.768Z,99532.30
2019-05-26T00:39:22.966Z,99537.36
2019-05-26T00:41:55.280Z,99533.46
2019-05-26T00:44:27.486Z,99534.17
2019-05-26T00:46:59.774Z,99532.41
2019-05-26T00:49:31.982Z,99536.66
2019-05-26T00:52:04.217Z,99537.97
2019-05-26T00:54:36.847Z,99538.78
2019-05-26T00:57:09.177Z,99534.69
2019-05-26T00:59:41.363Z,99531.42
2019-05-26T01:02:13.667Z,99532.44
2019-05-26T01:04:45.866Z,99531.06
2019-05-26T01:07:18.084Z,99527.22
2019-05-26T01:09:50.219Z,99530.75
2019-05-26T01:12:22.521Z,99529.16
2019-05-26T01:14:55.788Z,99530.93
2019-05-26T01:17:28.009Z,99527.77
2019-05-26T01:20:00.133Z,99531.00
2019-05-26T01:22:32.345Z,99534.83
2019-05-26T01:25:04.825Z,99532.71
2019-05-26T01:27:37.364Z,99530.84
2019-05-26T01:30:09.635Z,99531.20
2019-05-26T01:32:41.796Z,99538.16
2019-05-26T01:35:14.049Z,99541.88
2019-05-26T01:37:46.272Z,99545.34
2019-05-26T01:40:23.414Z,99544.00
2019-05-26T01:42:55.791Z,99548.45
2019-05-26T01:45:27.994Z,99549.78
2019-05-26T01:48:00.146Z,99548.97
2019-05-26T01:50:32.411Z,99554.19
2019-05-26T01:53:05.086Z,99555.62
2019-05-26T01:55:37.286Z,99557.95
2019-05-26T01:58:09.516Z,99557.96
2019-05-26T02:00:42.195Z,99556.94
2019-05-26T02:03:14.411Z,99559.06
2019-05-26T02:05:46.605Z,99561.98
2019-05-26T02:08:18.849Z,99562.09
2019-05-26T02:10:52.048Z,99565.06
2019-05-26T02:13:24.287Z,99562.95
2019-05-26T02:15:56.482Z,99559.19
2019-05-26T02:18:28.764Z,99558.77
2019-05-26T02:21:01.161Z,99557.47
2019-05-26T02:23:33.504Z,99554.86
2019-05-26T02:26:05.784Z,99557.81
2019-05-26T02:28:38.964Z,99561.63
2019-05-26T02:31:11.138Z,99564.80
2019-05-26T02:33:43.438Z,99562.84
2019-05-26T02:36:15.706Z,99563.27
2019-05-26T02:39:01.056Z,99563.39
2019-05-26T02:41:21.874Z,99564.80
2019-05-26T02:43:54.087Z,99565.28
2019-05-26T02:46:26.287Z,99560.95
2019-05-26T02:48:58.558Z,99562.75
2019-05-26T02:51:30.755Z,99566.00
2019-05-26T02:54:03.057Z,99567.63
2019-05-26T02:56:35.316Z,99564.84
2019-05-26T02:59:07.545Z,99560.66
2019-05-26T03:01:58.375Z,99562.92
2019-05-26T03:04:13.878Z,99562.27
2019-05-26T03:06:46.333Z,99567.30
2019-05-26T03:09:23.277Z,99564.89
2019-05-26T03:11:52.802Z,99569.56
2019-05-26T03:14:25.609Z,99570.06
2019-05-26T03:16:58.033Z,99572.91
2019-05-26T03:19:30.185Z,99567.72
2019-05-26T03:22:02.450Z,99569.60
2019-05-26T03:24:34.838Z,99573.16
2019-05-26T03:27:07.042Z,99575.22
2019-05-26T03:29:39.253Z,99576.11
2019-05-26T03:32:11.446Z,99572.11
2019-05-26T03:34:43.748Z,99571.30
2019-05-26T03:37:15.922Z,99571.00
2019-05-26T03:39:48.156Z,99565.12
2019-05-26T03:42:20.256Z,99566.20
2019-05-26T03:44:52.496Z,99569.18
2019-05-26T03:47:24.694Z,99573.63
2019-05-26T03:49:56.985Z,99577.33
2019-05-26T03:52:29.268Z,99579.08
2019-05-26T03:55:01.483Z,99576.94
2019-05-26T03:57:33.671Z,99580.08
2019-05-26T04:00:06.741Z,99584.14
2019-05-26T04:02:38.977Z,99580.95
2019-05-26T04:05:11.343Z,99581.52
2019-05-26T04:07:43.591Z,99586.09
2019-05-26T04:10:15.817Z,99579.95
2019-05-26T04:12:48.032Z,99575.20
2019-05-26T04:15:20.221Z,99579.81
2019-05-26T04:17:52.337Z,99577.86
2019-05-26T04:20:24.547Z,99577.53
2019-05-26T04:22:56.825Z,99574.42
2019-05-26T04:25:29.673Z,99572.19
2019-05-26T04:28:01.980Z,99579.33
2019-05-26T04:30:34.333Z,99583.84
2019-05-26T04:33:06.538Z,99578.27
2019-05-26T04:35:38.818Z,99575.34
2019-05-26T04:38:11.087Z,99579.94
2019-05-26T04:40:43.887Z,99580.01
2019-05-26T04:43:16.343Z,99578.58
2019-05-26T04:45:48.639Z,99584.31
2019-05-26T04:48:20.909Z,99582.59
2019-05-26T04:50:53.220Z,99578.23
2019-05-26T04:53:25.404Z,99577.20
2019-05-26T04:55:57.739Z,99580.31
2019-05-26T04:58:30.013Z,99579.94
2019-05-26T05:01:02.229Z,99581.39
2019-05-26T05:03:34.433Z,99587.70
2019-05-26T05:06:06.740Z,99585.03
2019-05-26T05:08:38.946Z,99584.91
2019-05-26T05:11:11.169Z,99589.50
2019-05-26T05:13:43.445Z,99588.59
2019-05-26T05:16:15.747Z,99588.69
2019-05-26T05:18:48.172Z,99590.48
2019-05-26T05:21:20.384Z,99598.12
2019-05-26T05:23:52.733Z,99595.98
2019-05-26T05:26:25.041Z,99604.54
2019-05-26T05:28:57.296Z,99604.36
2019-05-26T05:31:29.593Z,99605.75
2019-05-26T05:34:01.846Z,99607.89
2019-05-26T05:36:34.624Z,99609.52
2019-05-26T05:39:08.825Z,99608.12
2019-05-26T05:41:41.154Z,99604.94
2019-05-26T05:44:13.428Z,99604.39
2019-05-26T05:46:45.741Z,99606.50
2019-05-26T05:49:18.012Z,99603.05
2019-05-26T05:51:50.241Z,99602.78
2019-05-26T05:54:23.401Z,99606.45
2019-05-26T05:56:55.940Z,99604.13
2019-05-26T05:59:28.129Z,99602.95
2019-05-26T06:02:00.360Z,99601.64
2019-05-26T06:04:32.576Z,99601.36
2019-05-26T06:07:04.812Z,99602.41
2019-05-26T06:09:36.986Z,99604.63
2019-05-26T06:12:09.291Z,99605.33
2019-05-26T06:14:41.823Z,99600.52
2019-05-26T06:17:14.045Z,99601.44
2019-05-26T06:19:46.330Z,99604.11
2019-05-26T06:22:18.547Z,99601.22
2019-05-26T06:24:50.817Z,99603.14
2019-05-26T06:27:23.116Z,99602.63
2019-05-26T06:29:58.893Z,99594.59
2019-05-26T06:32:29.246Z,99592.17
2019-05-26T06:35:01.519Z,99594.42
2019-05-26T06:37:33.759Z,99596.83
2019-05-26T06:40:07.552Z,99595.42
2019-05-26T06:42:39.865Z,99590.45
2019-05-26T06:45:12.151Z,99591.13
2019-05-26T06:47:44.529Z,99589.41
2019-05-26T06:50:16.915Z,99588.13
2019-05-26T06:52:49.124Z,99589.82
2019-05-26T06:55:21.326Z,99589.20
2019-05-26T06:57:53.736Z,99591.82
2019-05-26T07:00:25.987Z,99591.64
2019-05-26T07:02:58.278Z,99594.86
2019-05-26T07:05:30.481Z,99594.70
2019-05-26T07:08:02.926Z,99594.69
2019-05-26T07:10:35.134Z,99597.98
2019-05-26T07:13:07.429Z,99594.84
2019-05-26T07:15:39.656Z,99596.69
2019-05-26T07:18:11.868Z,99598.41
2019-05-26T07:20:44.123Z,99592.47
2019-05-26T07:23:16.351Z,99594.19
2019-05-26T07:25:48.553Z,99592.80
2019-05-26T07:28:20.787Z,99594.08
2019-05-26T07:30:53.062Z,99593.49
2019-05-26T07:33:25.313Z,99596.58
2019-05-26T07:35:57.579Z,99593.92
2019-05-26T07:38:29.804Z,99593.38
2019-05-26T07:41:02.130Z,99592.64
2019-05-26T07:43:34.367Z,99589.16
2019-05-26T07:46:06.735Z,99592.97
2019-05-26T07:48:38.948Z,99591.29
2019-05-26T07:51:11.147Z,99588.92
2019-05-26T07:53:43.450Z,99590.34
2019-05-26T07:56:15.719Z,99588.83
2019-05-26T07:58:48.264Z,99591.29
2019-05-26T08:01:24.199Z,99588.33
2019-05-26T08:03:54.615Z,99586.47
2019-05-26T08:06:26.952Z,99583.81
2019-05-26T08:08:59.259Z,99585.85
2019-05-26T08:11:31.534Z,99588.01
2019-05-26T08:14:03.858Z,99581.27
2019-05-26T08:16:36.113Z,99586.59
2019-05-26T08:19:08.331Z,99585.26
2019-05-26T08:21:40.521Z,99586.10
2019-05-26T08:24:12.741Z,99590.00
2019-05-26T08:26:45.007Z,99587.89
2019-05-26T08:29:17.378Z,99581.41
2019-05-26T08:31:49.606Z,99579.43
2019-05-26T08:34:22.009Z,99580.52
2019-05-26T08:36:54.273Z,99576.90
2019-05-26T08:39:28.216Z,99578.41
2019-05-26T08:42:00.432Z,99575.64
2019-05-26T08:44:32.675Z,99572.92
2019-05-26T08:47:04.871Z,99571.67
2019-05-26T08:49:37.234Z,99572.72
2019-05-26T08:52:09.446Z,99563.16
2019-05-26T08:54:42.636Z,99560.84
2019-05-26T08:57:14.919Z,99561.76
2019-05-26T08:59:47.136Z,99562.17
2019-05-26T09:02:19.335Z,99566.20
2019-05-26T09:04:51.526Z,99564.55
2019-05-26T09:07:23.709Z,99558.56
2019-05-26T09:09:55.926Z,99560.66
2019-05-26T09:12:29.100Z,99560.51
2019-05-26T09:15:01.484Z,99560.95
2019-05-26T09:17:33.827Z,99557.59
2019-05-26T09:20:11.207Z,99558.64
2019-05-26T09:22:41.913Z,99552.47
2019-05-26T09:25:14.186Z,99549.70
2019-05-26T09:27:46.317Z,99541.48
2019-05-26T09:30:18.689Z,99540.80
2019-05-26T09:32:50.981Z,99547.16
2019-05-26T09:35:23.639Z,99537.50
2019-05-26T09:37:55.977Z,99543.45
2019-05-26T09:40:28.206Z,99536.69
2019-05-26T09:43:14.783Z,99539.11
2019-05-26T09:45:34.461Z,99535.77
2019-05-26T09:48:06.739Z,99543.66
2019-05-26T09:50:39.920Z,99539.36
2019-05-26T09:53:12.192Z,99536.31
2019-05-26T09:55:44.409Z,99534.39
2019-05-26T09:58:16.604Z,99534.39
2019-05-26T10:00:48.831Z,99532.69
2019-05-26T10:03:21.032Z,99535.55
2019-05-26T10:05:53.329Z,99532.56
2019-05-26T10:08:25.541Z,99532.45
2019-05-26T10:10:57.812Z,99527.61
2019-05-26T10:13:32.016Z,99522.20
2019-05-26T10:16:04.109Z,99531.81
2019-05-26T10:18:36.417Z,99527.63
2019-05-26T10:21:08.652Z,99523.58
2019-05-26T10:23:40.866Z,99522.52
2019-05-26T10:26:13.258Z,99525.13
2019-05-26T10:28:45.543Z,99524.77
2019-05-26T10:31:17.844Z,99522.42
2019-05-26T10:33:50.248Z,99519.36
2019-05-26T10:36:22.629Z,99517.08
2019-05-26T10:38:54.840Z,99511.56
2019-05-26T10:41:27.081Z,99510.66
2019-05-26T10:43:59.205Z,99509.39
2019-05-26T10:46:31.445Z,99509.66
2019-05-26T10:49:03.667Z,99509.67
2019-05-26T10:51:35.963Z,99503.03
2019-05-26T10:54:08.243Z,99497.27
2019-05-26T10:56:41.578Z,99494.06
2019-05-26T10:59:13.852Z,99489.05
2019-05-26T11:02:04.443Z,99484.00
2019-05-26T11:04:38.709Z,99480.45
2019-05-26T11:07:11.771Z,99477.30
2019-05-26T11:09:44.638Z,99479.28
2019-05-26T11:12:17.599Z,99476.89
2019-05-26T11:14:50.511Z,99472.33
2019-05-26T11:17:23.441Z,99469.50
2019-05-26T11:19:56.478Z,99469.27
2019-05-26T11:22:29.432Z,99465.24
2019-05-26T11:25:02.438Z,99467.27
2019-05-26T11:27:35.634Z,99460.39
2019-05-26T11:30:09.815Z,99455.52
2019-05-26T11:32:43.022Z,99447.20
2019-05-26T11:35:16.037Z,99448.53
2019-05-26T11:37:49.209Z,99444.40
2019-05-26T11:40:22.479Z,99442.21
2019-05-26T11:42:55.669Z,99441.85
2019-05-26T11:45:28.982Z,99443.78
2019-05-26T11:48:02.146Z,99443.25
2019-05-26T11:50:35.280Z,99438.17
2019-05-26T11:53:08.427Z,99434.72
2019-05-26T11:55:41.518Z,99430.41
2019-05-26T11:58:14.590Z,99428.48
2019-05-26T12:00:47.626Z,99428.84
2019-05-26T12:03:20.834Z,99421.39
2019-05-26T12:05:54.034Z,99422.55
2019-05-26T12:08:26.945Z,99416.08
2019-05-26T12:11:00.004Z,99410.28
2019-05-26T12:13:36.008Z,99406.45
2019-05-26T12:16:07.648Z,99408.02
2019-05-26T12:18:40.715Z,99408.11
2019-05-26T12:21:13.734Z,99403.62
2019-05-26T12:23:46.977Z,99400.55
2019-05-26T12:26:20.294Z,99401.17
2019-05-26T12:28:53.557Z,99399.49
2019-05-26T12:31:26.749Z,99400.64
2019-05-26T12:33:59.961Z,99396.37
2019-05-26T12:36:33.199Z,99395.41
2019-05-26T12:39:07.757Z,99392.19
2019-05-26T12:41:40.001Z,99380.31
2019-05-26T12:44:14.302Z,99385.13
2019-05-26T12:46:46.656Z,99373.31
2019-05-26T12:49:20.962Z,99371.28
2019-05-26T12:51:56.199Z,99371.71
2019-05-26T12:54:30.179Z,99369.02
2019-05-26T12:57:25.202Z,99373.56
2019-05-26T12:59:57.580Z,99369.95
2019-05-26T13:02:35.782Z,99371.98
2019-05-26T13:05:14.183Z,99377.27
2019-05-26T13:07:48.495Z,99375.41
2019-05-26T13:10:31.839Z,99364.34
2019-05-26T13:13:04.264Z,99359.47
2019-05-26T13:16:09.333Z,99356.88
2019-05-26T13:18:45.997Z,99357.35
2019-05-26T13:21:36.548Z,99353.78
2019-05-26T13:24:21.177Z,99350.45
2019-05-26T13:26:57.865Z,99351.06
2019-05-26T13:29:46.733Z,99352.42
2019-05-26T13:32:22.370Z,99343.67
2019-05-26T13:35:05.487Z,99345.53
2019-05-26T13:37:37.703Z,99342.66
2019-05-26T13:43:45.717Z,99337.44
2019-05-26T13:46:24.977Z,99333.37
2019-05-26T13:49:17.239Z,99331.37
2019-05-26T13:51:50.447Z,99328.89
2019-05-26T13:54:22.918Z,99331.41
2019-05-26T13:56:55.347Z,99326.62
2019-05-26T13:59:27.713Z,99325.34
2019-05-26T14:02:02.080Z,99330.24
2019-05-26T14:04:34.274Z,99325.36
2019-05-26T14:07:06.609Z,99329.20
2019-05-26T14:09:38.823Z,99327.82
2019-05-26T14:12:12.706Z,99324.31
2019-05-26T14:14:45.049Z,99321.22
2019-05-26T14:17:17.290Z,99317.88
2019-05-26T14:19:49.409Z,99322.09
2019-05-26T14:22:23.181Z,99320.26
2019-05-26T14:24:55.380Z,99317.78
2019-05-26T14:27:27.604Z,99313.47
2019-05-26T14:29:59.793Z,99308.83
2019-05-26T14:32:32.002Z,99307.17
2019-05-26T14:35:04.527Z,99308.39
2019-05-26T14:37:36.760Z,99305.27
2019-05-26T14:40:09.406Z,99300.47
2019-05-26T14:42:44.902Z,99298.38
2019-05-26T14:45:17.305Z,99292.84
2019-05-26T14:47:49.646Z,99295.00
2019-05-26T14:50:21.991Z,99290.19
2019-05-26T14:52:54.216Z,99285.77
2019-05-26T14:55:26.492Z,99282.45
2019-05-26T14:58:14.460Z,99283.12
2019-05-26T15:00:32.810Z,99277.92
2019-05-26T15:03:05.229Z,99277.38
2019-05-26T15:05:37.440Z,99276.66
2019-05-26T15:08:09.890Z,99280.14
2019-05-26T15:10:42.195Z,99275.16
2019-05-26T15:13:14.418Z,99270.50
2019-05-26T15:15:47.582Z,99269.02
2019-05-26T15:18:19.876Z,99271.00
2019-05-26T15:20:55.388Z,99270.85
2019-05-26T15:23:26.150Z,99265.02
2019-05-26T15:25:58.359Z,99264.17
2019-05-26T15:28:30.771Z,99262.61
2019-05-26T15:31:03.124Z,99262.32
2019-05-26T15:33:35.621Z,99256.00
2019-05-26T15:36:07.888Z,99256.14
2019-05-26T15:38:43.233Z,99260.05
2019-05-26T15:41:15.828Z,99254.17
2019-05-26T15:43:48.794Z,99251.48
2019-05-26T15:46:25.326Z,99246.33
2019-05-26T15:48:56.263Z,99246.58
2019-05-26T15:51:28.757Z,99246.08
2019-05-26T15:54:01.100Z,99247.67
2019-05-26T15:56:33.227Z,99246.73
2019-05-26T15:59:05.455Z,99242.20
2019-05-26T16:01:37.762Z,99240.44
2019-05-26T16:04:10.579Z,99236.22
2019-05-26T16:06:43.492Z,99234.89
2019-05-26T16:09:16.471Z,99237.11
2019-05-26T16:11:49.294Z,99229.98
2019-05-26T16:14:22.066Z,99229.00
2019-05-26T16:16:54.938Z,99230.49
2019-05-26T16:19:27.809Z,99229.88
2019-05-26T16:22:00.729Z,99228.76
2019-05-26T16:24:33.647Z,99225.89
2019-05-26T16:27:18.652Z,99225.93
2019-05-26T16:29:40.600Z,99224.30
2019-05-26T16:32:13.843Z,99223.30
2019-05-26T16:34:46.108Z,99218.48
2019-05-26T16:37:18.705Z,99222.33
2019-05-26T16:39:50.932Z,99220.64
2019-05-26T16:42:23.222Z,99219.38
2019-05-26T16:44:55.450Z,99210.72
2019-05-26T16:47:28.312Z,99212.34
2019-05-26T16:50:01.063Z,99208.48
2019-05-26T16:52:33.918Z,99204.34
2019-05-26T16:55:06.512Z,99204.71
2019-05-26T16:57:38.967Z,99203.88
2019-05-26T17:00:11.626Z,99202.47
2019-05-26T17:02:43.836Z,99200.16
2019-05-26T17:05:16.204Z,99200.31
2019-05-26T17:07:50.516Z,99196.88
2019-05-26T17:10:22.627Z,99197.52
2019-05-26T17:12:54.910Z,99198.01
2019-05-26T17:15:27.154Z,99196.29
2019-05-26T17:17:59.534Z,99196.62
2019-05-26T17:20:31.774Z,99191.11
2019-05-26T17:23:04.126Z,99191.66
2019-05-26T17:25:39.885Z,99192.92
2019-05-26T17:28:12.150Z,99189.54
2019-05-26T17:30:44.489Z,99188.78
2019-05-26T17:33:16.693Z,99184.36
2019-05-26T17:35:48.936Z,99182.05
2019-05-26T17:38:21.795Z,99185.89
2019-05-26T17:40:54.744Z,99185.41
2019-05-26T17:43:27.724Z,99186.73
2019-05-26T17:46:00.602Z,99185.21
2019-05-26T17:48:33.768Z,99186.64
2019-05-26T17:51:06.632Z,99190.02
2019-05-26T17:53:39.324Z,99184.09
2019-05-26T17:56:11.614Z,99179.42
2019-05-26T17:58:43.890Z,99181.25
2019-05-26T18:01:17.068Z,99180.59
2019-05-26T18:04:33.062Z,99177.69
2019-05-26T18:13:30.816Z,99172.44
2019-05-26T18:16:21.728Z,99173.75
2019-05-26T18:19:08.592Z,99174.52
2019-05-26T18:21:50.269Z,99171.72
2019-05-26T18:40:13.198Z,99165.30
2019-05-26T18:42:50.158Z,99165.67
2019-05-26T18:45:22.682Z,99166.34
2019-05-26T18:48:02.972Z,99171.75
2019-05-26T18:50:30.763Z,99164.70
2019-05-26T18:53:03.530Z,99165.83
2019-05-26T18:55:36.176Z,99167.22
2019-05-26T18:58:08.866Z,99165.39
2019-05-26T19:00:41.421Z,99166.68
2019-05-26T19:03:14.141Z,99162.91
2019-05-26T19:05:46.805Z,99164.88
2019-05-26T19:08:19.373Z,99161.64
2019-05-26T19:10:51.991Z,99165.39
2019-05-26T19:13:24.655Z,99161.77
2019-05-26T19:15:58.833Z,99163.92
2019-05-26T19:18:31.806Z,99167.97
2019-05-26T19:21:04.382Z,99170.59
2019-05-26T19:23:37.007Z,99173.12
2019-05-26T19:26:09.519Z,99170.28
2019-05-26T19:28:42.211Z,99170.45
2019-05-26T19:31:14.789Z,99174.70
2019-05-26T19:33:47.493Z,99173.16
2019-05-26T19:36:20.101Z,99170.61
2019-05-26T19:38:52.805Z,99171.88
2019-05-26T19:41:25.418Z,99177.24
2019-05-26T19:43:58.419Z,99172.78
2019-05-26T19:46:31.193Z,99172.72
2019-05-26T19:49:03.857Z,99173.75
2019-05-26T19:51:36.508Z,99178.25
2019-05-26T19:54:09.251Z,99174.82
2019-05-26T19:56:42.029Z,99177.41
2019-05-26T19:59:14.837Z,99181.22
2019-05-26T20:01:47.462Z,99185.05
2019-05-26T20:04:20.137Z,99184.72
2019-05-26T20:06:52.822Z,99186.37
2019-05-26T20:09:25.769Z,99188.69
2019-05-26T20:11:58.282Z,99192.42
2019-05-26T20:14:30.917Z,99191.23
2019-05-26T20:17:03.901Z,99187.17
2019-05-26T20:19:41.605Z,99185.67
2019-05-26T20:22:26.500Z,99185.61
2019-05-26T20:25:08.158Z,99181.08
2019-05-26T20:27:45.554Z,99183.89
2019-05-26T20:30:23.085Z,99184.25
2019-05-26T20:32:58.963Z,99186.22
2019-05-26T20:35:38.208Z,99182.45
2019-05-26T20:38:13.530Z,99181.39
2019-05-26T20:41:01.408Z,99185.55
2019-05-26T20:44:03.144Z,99182.49
2019-05-26T20:46:40.490Z,99182.75
2019-05-26T20:49:23.116Z,99180.34
2019-05-26T20:52:48.992Z,99180.73
2019-05-26T20:55:40.524Z,99180.31
2019-05-26T20:58:32.339Z,99181.69
2019-05-26T21:01:28.431Z,99173.69
2019-05-26T21:05:19.648Z,99176.55
2019-05-26T21:08:08.062Z,99175.70
2019-05-26T21:10:47.147Z,99175.89
2019-05-26T21:13:34.853Z,99174.56
2019-05-26T21:16:14.571Z,99179.66
2019-05-26T21:19:02.544Z,99176.09
2019-05-26T21:21:47.358Z,99175.91
2019-05-26T21:24:26.989Z,99175.44
2019-05-26T21:27:08.798Z,99169.39
2019-05-26T21:33:54.835Z,99170.11
2019-05-26T21:36:59.491Z,99168.27
2019-05-26T21:40:26.008Z,99168.48
2019-05-26T21:43:14.749Z,99166.11
2019-05-26T21:45:54.632Z,99165.66
2019-05-26T21:53:43.642Z,99167.30
2019-05-26T21:56:47.512Z,99162.98
2019-05-26T21:59:55.798Z,99159.27
2019-05-26T22:03:04.593Z,99157.52
2019-05-26T22:05:51.592Z,99155.16
2019-05-26T22:08:50.621Z,99160.83
2019-05-26T22:11:32.814Z,99166.45
2019-05-26T22:14:19.527Z,99158.85
2019-05-26T22:17:06.948Z,99163.05
2019-05-26T22:20:03.341Z,99159.48
2019-05-26T22:22:55.243Z,99158.20
2019-05-26T22:26:11.634Z,99158.71
2019-05-26T22:28:48.863Z,99155.61
2019-05-26T22:31:46.376Z,99151.38
2019-05-26T22:34:36.473Z,99150.20
2019-05-26T22:37:50.501Z,99147.58
2019-05-26T22:41:10.156Z,99146.13
2019-05-26T22:46:50.224Z,99140.05
2019-05-26T22:49:31.941Z,99141.20
2019-05-26T22:53:06.985Z,99139.23
2019-05-26T22:56:00.825Z,99139.06
2019-05-26T22:58:47.956Z,99138.97
2019-05-26T23:01:40.138Z,99131.47
2019-05-26T23:04:21.421Z,99132.77
2019-05-26T23:13:19.717Z,99123.97
2019-05-26T23:16:27.052Z,99117.95
2019-05-26T23:19:19.296Z,99117.62
2019-05-26T23:21:52.546Z,99119.58
2019-05-26T23:24:31.169Z,99115.54
2019-05-26T23:27:13.930Z,99117.94
2019-05-26T23:29:51.393Z,99109.84
2019-05-26T23:32:28.082Z,99116.69
2019-05-26T23:35:06.607Z,99117.72
2019-05-26T23:37:48.080Z,99117.25
2019-05-26T23:40:27.845Z,99111.67
2019-05-26T23:43:04.753Z,99107.94
2019-05-26T23:45:45.151Z,99108.16
2019-05-26T23:48:29.640Z,99109.29
2019-05-26T23:51:08.956Z,99114.73
2019-05-26T23:53:48.709Z,99112.12
2019-05-26T23:56:25.066Z,99103.13
2019-05-26T23:59:02.005Z,99102.13
